< < Back
Terminal Aerodrome Forecast


Current Version              Previous Versions:   1  2  3  4  5  6  7  8  9  

Terminal Aerodrome Forecast

273
FTUS44 KMRX 251120
TAFTYS
TAF
KTYS 251120Z 2512/2612 00000KT 6SM BR SKC
     FM251300 VRB03KT P6SM SKC
     FM252000 24005KT P6SM BKN050
     FM260600 27003KT P6SM BKN035=

Latest METAR

358
SAUS80 KWBC 251300 RRA
MTRTYS
METAR KTYS 251253Z 00000KT 10SM FEW250 07/05 A3010 RMK AO2 SLP193
T00670050


USA.gov is the U.S. government's official web portal to all federal, state and local government web resources and services.